Decoded Metar for YPPH (PERTH in AUSTRALIA) (IATA:PER) | Meteo·Mobile Aviation Weather
aviador You're here:

YPPH Decoded Metar

PERTH in AUSTRALIA
Report Time2019-03-21 15:30:00
UTC Time2019-03-21 15:50:19
Flight Rules vfr VFR
Wind010° at 07 kt
W.Decomp.*RWY 03: 6.7 kt HW 2.2 kt LCW
RWY 06: 4.7 kt HW 5.2 kt LCW
W.Rank010° ranks 7
Current wind is below 010° avg. (7.1)
Visibility9999 m
Phenomena:N/A
Clouds:N/A
Expected CloudBase > 1,200 ft AGL from Temp-Dew spread
CeilingNone
Temp21°C (ISA +6)
Dew Point18°C (83% RH)
QNH1009 hPa
Density Alt1,161 ft
Elevation43 ft
Report Wrong Elevation
Raw Report
YPPH 211530Z 01007KT CAVOK 21/18 Q1009 NOSIG=

Extra information for YPPH:More info

Metar Taf Metar & Taf Last 4 Metars F.Rules Stats Wind Profile Meteogram Temp Stats Airport Information Weather charts Add Link Nearby VenuesMetar ALERT Operation Metar Decoded Social comments